Terminal Aerodrome Forecast
Issued by NWS

Home | Current Version | Previous Version | Text Only | Print | Product List | Glossary On
Versions: 1 2 3 4 5 6 7 8 9 10 11 12 13 14 15 16
000
FTUS43 KEAX 282000 AAA
TAFMKC
TAF AMD
KMKC 282022Z 2820/2918 17010KT P6SM -RA VCTS BKN035CB OVC110
     FM282330 18008KT P6SM SCT030 OVC190
     FM291700 22014KT P6SM VCTS BKN035CB OVC130=

USA.gov is the U.S. government's official web portal to all federal, state and local government web resources and services.